sensor_id;sensor_type;location;lat;lon;timestamp;pressure;altitude;pressure_sealevel;temperature;humidity
60355;BME280;46198;51.464;-0.066;2022-08-04T00:01:18;101280.22;;;20.77;66.62
60355;BME280;46198;51.464;-0.066;2022-08-04T00:03:55;101272.50;;;20.69;67.05
60355;BME280;46198;51.464;-0.066;2022-08-04T00:06:44;101281.34;;;20.76;67.04
60355;BME280;46198;51.464;-0.066;2022-08-04T00:09:17;101284.38;;;20.75;66.57
60355;BME280;46198;51.464;-0.066;2022-08-04T00:11:50;101283.00;;;20.77;66.53
60355;BME280;46198;51.464;-0.066;2022-08-04T00:14:22;101289.06;;;20.64;64.81
60355;BME280;46198;51.464;-0.066;2022-08-04T00:16:52;101275.53;;;20.73;66.28
60355;BME280;46198;51.464;-0.066;2022-08-04T00:19:26;101283.53;;;20.74;64.31
60355;BME280;46198;51.464;-0.066;2022-08-04T00:21:59;101281.06;;;20.73;65.40
60355;BME280;46198;51.464;-0.066;2022-08-04T00:24:31;101270.88;;;20.63;63.58
60355;BME280;46198;51.464;-0.066;2022-08-04T00:27:01;101279.66;;;20.60;63.59
60355;BME280;46198;51.464;-0.066;2022-08-04T00:29:30;101277.75;;;20.61;64.15
60355;BME280;46198;51.464;-0.066;2022-08-04T00:32:01;101278.31;;;20.57;63.07
60355;BME280;46198;51.464;-0.066;2022-08-04T00:34:30;101284.66;;;20.58;64.02
60355;BME280;46198;51.464;-0.066;2022-08-04T00:36:59;101280.22;;;20.57;62.66
60355;BME280;46198;51.464;-0.066;2022-08-04T00:39:27;101276.94;;;20.55;62.84
60355;BME280;46198;51.464;-0.066;2022-08-04T00:42:13;101282.41;;;20.50;62.63
60355;BME280;46198;51.464;-0.066;2022-08-04T00:44:54;101276.66;;;20.56;63.33
60355;BME280;46198;51.464;-0.066;2022-08-04T00:47:38;101282.41;;;20.50;63.05
60355;BME280;46198;51.464;-0.066;2022-08-04T00:50:10;101277.72;;;20.50;62.94
60355;BME280;46198;51.464;-0.066;2022-08-04T00:52:51;101278.03;;;20.54;62.98
60355;BME280;46198;51.464;-0.066;2022-08-04T00:55:40;101275.78;;;20.46;62.72
60355;BME280;46198;51.464;-0.066;2022-08-04T00:58:22;101280.78;;;20.54;63.48
60355;BME280;46198;51.464;-0.066;2022-08-04T01:00:59;101282.69;;;20.48;61.99
60355;BME280;46198;51.464;-0.066;2022-08-04T01:03:40;101279.38;;;20.51;62.50
60355;BME280;46198;51.464;-0.066;2022-08-04T01:06:23;101276.34;;;20.48;62.31
60355;BME280;46198;51.464;-0.066;2022-08-04T01:09:07;101271.69;;;20.53;62.00
60355;BME280;46198;51.464;-0.066;2022-08-04T01:12:12;101273.03;;;20.51;62.29
60355;BME280;46198;51.464;-0.066;2022-08-04T01:15:05;101271.09;;;20.51;61.80
60355;BME280;46198;51.464;-0.066;2022-08-04T01:17:43;101273.31;;;20.44;60.15
60355;BME280;46198;51.464;-0.066;2022-08-04T01:20:17;101272.47;;;20.44;61.33
60355;BME280;46198;51.464;-0.066;2022-08-04T01:26:17;101270.81;;;20.32;61.29
60355;BME280;46198;51.464;-0.066;2022-08-04T01:29:09;101269.44;;;20.35;60.96
60355;BME280;46198;51.464;-0.066;2022-08-04T01:31:54;101273.56;;;20.17;59.87
60355;BME280;46198;51.464;-0.066;2022-08-04T01:34:29;101275.22;;;20.18;60.42
60355;BME280;46198;51.464;-0.066;2022-08-04T01:37:03;101281.00;;;20.22;60.55
60355;BME280;46198;51.464;-0.066;2022-08-04T01:39:40;101278.53;;;20.20;59.65
60355;BME280;46198;51.464;-0.066;2022-08-04T01:42:10;101283.47;;;20.08;59.46
60355;BME280;46198;51.464;-0.066;2022-08-04T01:45:04;101276.00;;;20.08;59.52
60355;BME280;46198;51.464;-0.066;2022-08-04T01:47:34;101271.88;;;20.11;60.50
60355;BME280;46198;51.464;-0.066;2022-08-04T01:50:06;101275.19;;;20.08;60.24
60355;BME280;46198;51.464;-0.066;2022-08-04T01:52:35;101280.44;;;20.09;60.23
60355;BME280;46198;51.464;-0.066;2022-08-04T01:55:05;101280.72;;;20.13;60.40
60355;BME280;46198;51.464;-0.066;2022-08-04T01:57:36;101266.66;;;20.14;59.74
60355;BME280;46198;51.464;-0.066;2022-08-04T02:00:11;101268.56;;;20.04;59.96
60355;BME280;46198;51.464;-0.066;2022-08-04T02:02:40;101271.88;;;20.01;59.98
60355;BME280;46198;51.464;-0.066;2022-08-04T02:05:09;101272.69;;;19.96;57.74
60355;BME280;46198;51.464;-0.066;2022-08-04T02:07:54;101277.94;;;19.92;58.38
60355;BME280;46198;51.464;-0.066;2022-08-04T02:10:27;101267.44;;;20.00;58.44
60355;BME280;46198;51.464;-0.066;2022-08-04T02:13:07;101265.25;;;20.02;59.31
60355;BME280;46198;51.464;-0.066;2022-08-04T02:15:52;101258.66;;;19.98;59.03
60355;BME280;46198;51.464;-0.066;2022-08-04T02:18:23;101267.22;;;20.06;59.59
60355;BME280;46198;51.464;-0.066;2022-08-04T02:20:56;101270.50;;;20.08;59.39
60355;BME280;46198;51.464;-0.066;2022-08-04T02:23:30;101272.44;;;19.98;57.92
60355;BME280;46198;51.464;-0.066;2022-08-04T02:26:04;101269.38;;;19.94;58.44
60355;BME280;46198;51.464;-0.066;2022-08-04T02:28:36;101275.44;;;19.91;57.97
60355;BME280;46198;51.464;-0.066;2022-08-04T02:31:18;101280.09;;;19.80;57.81
60355;BME280;46198;51.464;-0.066;2022-08-04T02:33:55;101271.53;;;19.72;57.26
60355;BME280;46198;51.464;-0.066;2022-08-04T02:36:29;101273.47;;;19.71;57.74
60355;BME280;46198;51.464;-0.066;2022-08-04T02:38:59;101279.50;;;19.73;56.99
60355;BME280;46198;51.464;-0.066;2022-08-04T02:41:29;101277.34;;;19.80;56.89
60355;BME280;46198;51.464;-0.066;2022-08-04T02:43:59;101275.84;;;19.62;57.06
60355;BME280;46198;51.464;-0.066;2022-08-04T02:46:30;101275.66;;;19.69;56.89
60355;BME280;46198;51.464;-0.066;2022-08-04T02:49:01;101274.75;;;19.58;56.71
60355;BME280;46198;51.464;-0.066;2022-08-04T02:51:33;101276.75;;;19.68;57.47
60355;BME280;46198;51.464;-0.066;2022-08-04T02:54:03;101270.88;;;19.59;57.34
60355;BME280;46198;51.464;-0.066;2022-08-04T02:56:33;101270.69;;;19.66;58.02
60355;BME280;46198;51.464;-0.066;2022-08-04T02:59:05;101273.44;;;19.66;57.76
60355;BME280;46198;51.464;-0.066;2022-08-04T03:01:36;101277.22;;;19.65;57.22
60355;BME280;46198;51.464;-0.066;2022-08-04T03:04:54;101271.22;;;19.73;57.33
60355;BME280;46198;51.464;-0.066;2022-08-04T03:07:52;101271.25;;;19.68;57.32
60355;BME280;46198;51.464;-0.066;2022-08-04T03:10:53;101269.03;;;19.70;57.72
60355;BME280;46198;51.464;-0.066;2022-08-04T03:13:52;101261.03;;;19.68;57.11
60355;BME280;46198;51.464;-0.066;2022-08-04T03:16:38;101270.38;;;19.67;57.45
60355;BME280;46198;51.464;-0.066;2022-08-04T03:19:33;101268.38;;;19.53;57.45
60355;BME280;46198;51.464;-0.066;2022-08-04T03:22:27;101267.84;;;19.56;57.38
60355;BME280;46198;51.464;-0.066;2022-08-04T03:28:58;101256.25;;;19.54;57.61
60355;BME280;46198;51.464;-0.066;2022-08-04T03:34:41;101267.25;;;19.48;57.91
60355;BME280;46198;51.464;-0.066;2022-08-04T03:37:31;101267.78;;;19.35;58.18
60355;BME280;46198;51.464;-0.066;2022-08-04T03:43:47;101259.50;;;19.40;57.92
60355;BME280;46198;51.464;-0.066;2022-08-04T03:46:45;101265.81;;;19.31;57.65
60355;BME280;46198;51.464;-0.066;2022-08-04T03:49:48;101270.94;;;19.12;58.39
60355;BME280;46198;51.464;-0.066;2022-08-04T03:52:41;101270.97;;;19.17;58.35
60355;BME280;46198;51.464;-0.066;2022-08-04T03:55:40;101264.34;;;19.18;58.77
60355;BME280;46198;51.464;-0.066;2022-08-04T04:01:48;101263.81;;;19.21;58.59
60355;BME280;46198;51.464;-0.066;2022-08-04T04:04:44;101272.09;;;19.21;58.61
60355;BME280;46198;51.464;-0.066;2022-08-04T04:10:57;101285.78;;;19.06;58.92
60355;BME280;46198;51.464;-0.066;2022-08-04T04:16:47;101291.75;;;18.92;59.60
60355;BME280;46198;51.464;-0.066;2022-08-04T04:19:27;101290.03;;;18.86;60.24
60355;BME280;46198;51.464;-0.066;2022-08-04T04:25:04;101288.34;;;18.80;60.64
60355;BME280;46198;51.464;-0.066;2022-08-04T04:27:54;101282.53;;;18.76;61.07
60355;BME280;46198;51.464;-0.066;2022-08-04T04:30:57;101286.63;;;18.74;61.59
60355;BME280;46198;51.464;-0.066;2022-08-04T04:33:39;101284.47;;;18.76;61.33
60355;BME280;46198;51.464;-0.066;2022-08-04T04:36:12;101299.78;;;18.72;61.62
60355;BME280;46198;51.464;-0.066;2022-08-04T04:38:57;101290.47;;;18.73;60.95
60355;BME280;46198;51.464;-0.066;2022-08-04T04:42:15;101293.72;;;18.70;62.34
60355;BME280;46198;51.464;-0.066;2022-08-04T04:45:08;101302.50;;;18.67;62.57
60355;BME280;46198;51.464;-0.066;2022-08-04T04:47:46;101300.03;;;18.65;62.09
60355;BME280;46198;51.464;-0.066;2022-08-04T04:50:57;101301.94;;;18.65;62.80
60355;BME280;46198;51.464;-0.066;2022-08-04T04:53:36;101313.97;;;18.58;63.83
60355;BME280;46198;51.464;-0.066;2022-08-04T04:56:11;101316.69;;;18.53;64.27
60355;BME280;46198;51.464;-0.066;2022-08-04T04:58:41;101319.47;;;18.58;63.28
60355;BME280;46198;51.464;-0.066;2022-08-04T05:01:38;101312.91;;;18.59;63.74
60355;BME280;46198;51.464;-0.066;2022-08-04T05:04:32;101317.16;;;18.45;65.31
60355;BME280;46198;51.464;-0.066;2022-08-04T05:07:36;101313.59;;;18.45;65.09
60355;BME280;46198;51.464;-0.066;2022-08-04T05:10:19;101320.50;;;18.47;65.58
60355;BME280;46198;51.464;-0.066;2022-08-04T05:13:05;101322.19;;;18.53;65.00
60355;BME280;46198;51.464;-0.066;2022-08-04T05:16:03;101330.53;;;18.64;64.59
60355;BME280;46198;51.464;-0.066;2022-08-04T05:18:33;101334.34;;;18.57;65.74
60355;BME280;46198;51.464;-0.066;2022-08-04T05:21:15;101338.25;;;18.67;64.88
60355;BME280;46198;51.464;-0.066;2022-08-04T05:23:53;101341.34;;;18.70;64.65
60355;BME280;46198;51.464;-0.066;2022-08-04T05:26:29;101340.75;;;18.68;65.37
60355;BME280;46198;51.464;-0.066;2022-08-04T05:29:01;101344.25;;;18.58;65.34
60355;BME280;46198;51.464;-0.066;2022-08-04T05:31:33;101344.59;;;18.67;65.29
60355;BME280;46198;51.464;-0.066;2022-08-04T05:34:07;101350.13;;;18.72;64.60
60355;BME280;46198;51.464;-0.066;2022-08-04T05:36:39;101336.75;;;18.76;64.18
60355;BME280;46198;51.464;-0.066;2022-08-04T05:39:14;101348.56;;;18.76;63.25
60355;BME280;46198;51.464;-0.066;2022-08-04T05:41:44;101353.13;;;18.66;63.65
60355;BME280;46198;51.464;-0.066;2022-08-04T05:44:21;101342.06;;;18.60;63.80
60355;BME280;46198;51.464;-0.066;2022-08-04T05:46:53;101345.81;;;18.49;64.94
60355;BME280;46198;51.464;-0.066;2022-08-04T05:49:22;101348.72;;;18.70;64.50
60355;BME280;46198;51.464;-0.066;2022-08-04T05:51:53;101352.78;;;18.57;64.69
60355;BME280;46198;51.464;-0.066;2022-08-04T05:54:23;101355.38;;;18.74;64.27
60355;BME280;46198;51.464;-0.066;2022-08-04T05:56:53;101354.38;;;18.80;64.64
60355;BME280;46198;51.464;-0.066;2022-08-04T05:59:22;101350.34;;;18.93;64.59
60355;BME280;46198;51.464;-0.066;2022-08-04T06:01:54;101352.19;;;18.82;65.10
60355;BME280;46198;51.464;-0.066;2022-08-04T06:04:27;101354.19;;;18.92;65.39
60355;BME280;46198;51.464;-0.066;2022-08-04T06:06:58;101358.06;;;18.96;65.40
60355;BME280;46198;51.464;-0.066;2022-08-04T06:09:28;101350.97;;;19.00;65.23
60355;BME280;46198;51.464;-0.066;2022-08-04T06:11:59;101353.88;;;18.88;65.80
60355;BME280;46198;51.464;-0.066;2022-08-04T06:14:34;101360.56;;;18.97;65.37
60355;BME280;46198;51.464;-0.066;2022-08-04T06:17:06;101354.81;;;18.72;66.33
60355;BME280;46198;51.464;-0.066;2022-08-04T06:19:56;101361.94;;;18.95;65.38
60355;BME280;46198;51.464;-0.066;2022-08-04T06:22:48;101354.84;;;19.04;65.25
60355;BME280;46198;51.464;-0.066;2022-08-04T06:25:21;101354.38;;;18.80;65.59
60355;BME280;46198;51.464;-0.066;2022-08-04T06:27:51;101353.94;;;18.93;65.62
60355;BME280;46198;51.464;-0.066;2022-08-04T06:30:22;101358.50;;;18.82;64.76
60355;BME280;46198;51.464;-0.066;2022-08-04T06:32:53;101362.75;;;18.95;63.57
60355;BME280;46198;51.464;-0.066;2022-08-04T06:35:31;101358.38;;;18.72;64.47
60355;BME280;46198;51.464;-0.066;2022-08-04T06:38:00;101357.31;;;18.73;63.61
60355;BME280;46198;51.464;-0.066;2022-08-04T06:40:32;101367.50;;;18.73;63.39
60355;BME280;46198;51.464;-0.066;2022-08-04T06:43:02;101369.81;;;18.86;63.04
60355;BME280;46198;51.464;-0.066;2022-08-04T06:45:32;101377.63;;;18.72;62.78
60355;BME280;46198;51.464;-0.066;2022-08-04T06:48:02;101373.91;;;18.78;63.19
60355;BME280;46198;51.464;-0.066;2022-08-04T06:50:33;101378.88;;;18.81;63.68
60355;BME280;46198;51.464;-0.066;2022-08-04T06:53:23;101373.81;;;18.73;64.05
60355;BME280;46198;51.464;-0.066;2022-08-04T06:55:54;101386.56;;;18.79;63.48
60355;BME280;46198;51.464;-0.066;2022-08-04T06:58:24;101389.84;;;18.76;64.34
60355;BME280;46198;51.464;-0.066;2022-08-04T07:00:53;101384.91;;;18.78;63.97
60355;BME280;46198;51.464;-0.066;2022-08-04T07:03:29;101394.63;;;18.91;63.81
60355;BME280;46198;51.464;-0.066;2022-08-04T07:05:59;101397.94;;;18.93;64.19
60355;BME280;46198;51.464;-0.066;2022-08-04T07:08:33;101384.00;;;18.73;64.58
60355;BME280;46198;51.464;-0.066;2022-08-04T07:11:29;101394.16;;;18.99;63.83
60355;BME280;46198;51.464;-0.066;2022-08-04T07:14:12;101387.28;;;19.02;64.23
60355;BME280;46198;51.464;-0.066;2022-08-04T07:16:42;101392.59;;;18.76;64.85
60355;BME280;46198;51.464;-0.066;2022-08-04T07:19:11;101393.28;;;18.67;65.59
60355;BME280;46198;51.464;-0.066;2022-08-04T07:21:46;101395.59;;;19.07;64.51
60355;BME280;46198;51.464;-0.066;2022-08-04T07:24:36;101390.66;;;19.09;64.10
60355;BME280;46198;51.464;-0.066;2022-08-04T07:27:09;101378.75;;;19.36;63.22
60355;BME280;46198;51.464;-0.066;2022-08-04T07:29:39;101377.78;;;19.57;63.14
60355;BME280;46198;51.464;-0.066;2022-08-04T07:32:10;101395.06;;;19.90;61.33
60355;BME280;46198;51.464;-0.066;2022-08-04T07:34:40;101379.28;;;19.80;61.13
60355;BME280;46198;51.464;-0.066;2022-08-04T07:37:16;101388.19;;;19.92;61.07
60355;BME280;46198;51.464;-0.066;2022-08-04T07:39:44;101381.00;;;19.97;60.40
60355;BME280;46198;51.464;-0.066;2022-08-04T07:42:18;101383.91;;;20.37;61.00
60355;BME280;46198;51.464;-0.066;2022-08-04T07:44:47;101385.06;;;20.62;59.71
60355;BME280;46198;51.464;-0.066;2022-08-04T07:47:17;101390.06;;;20.55;58.81
60355;BME280;46198;51.464;-0.066;2022-08-04T07:49:51;101388.97;;;20.76;58.75
60355;BME280;46198;51.464;-0.066;2022-08-04T07:52:24;101388.88;;;20.46;57.90
60355;BME280;46198;51.464;-0.066;2022-08-04T07:54:53;101388.88;;;20.41;57.98
60355;BME280;46198;51.464;-0.066;2022-08-04T07:57:23;101391.38;;;20.52;58.21
60355;BME280;46198;51.464;-0.066;2022-08-04T08:00:09;101388.38;;;20.54;56.28
60355;BME280;46198;51.464;-0.066;2022-08-04T08:02:38;101395.28;;;20.62;55.72
60355;BME280;46198;51.464;-0.066;2022-08-04T08:05:08;101391.06;;;20.44;55.67
60355;BME280;46198;51.464;-0.066;2022-08-04T08:07:37;101391.19;;;20.85;55.92
60355;BME280;46198;51.464;-0.066;2022-08-04T08:10:20;101400.00;;;21.28;55.07
60355;BME280;46198;51.464;-0.066;2022-08-04T08:12:50;101388.94;;;21.33;53.59
60355;BME280;46198;51.464;-0.066;2022-08-04T08:15:19;101390.59;;;21.44;54.19
60355;BME280;46198;51.464;-0.066;2022-08-04T08:17:48;101392.56;;;21.28;54.50
60355;BME280;46198;51.464;-0.066;2022-08-04T08:20:30;101388.41;;;20.95;54.58
60355;BME280;46198;51.464;-0.066;2022-08-04T08:23:00;101372.97;;;21.09;54.16
60355;BME280;46198;51.464;-0.066;2022-08-04T08:25:31;101389.53;;;20.99;54.36
60355;BME280;46198;51.464;-0.066;2022-08-04T08:28:03;101378.47;;;20.73;54.94
60355;BME280;46198;51.464;-0.066;2022-08-04T08:30:32;101379.28;;;21.51;53.80
60355;BME280;46198;51.464;-0.066;2022-08-04T08:33:03;101390.59;;;21.44;53.79
60355;BME280;46198;51.464;-0.066;2022-08-04T08:35:46;101380.06;;;21.66;52.84
60355;BME280;46198;51.464;-0.066;2022-08-04T08:38:35;101386.69;;;21.65;53.29
60355;BME280;46198;51.464;-0.066;2022-08-04T08:44:40;101377.75;;;21.89;52.38
60355;BME280;46198;51.464;-0.066;2022-08-04T08:47:34;101381.09;;;21.86;51.58
60355;BME280;46198;51.464;-0.066;2022-08-04T08:53:53;101373.56;;;22.56;51.50
60355;BME280;46198;51.464;-0.066;2022-08-04T08:56:32;101378.88;;;22.48;49.30
60355;BME280;46198;51.464;-0.066;2022-08-04T08:59:42;101377.06;;;22.23;50.38
60355;BME280;46198;51.464;-0.066;2022-08-04T09:02:33;101386.06;;;21.89;50.64
60355;BME280;46198;51.464;-0.066;2022-08-04T09:05:22;101388.50;;;22.55;48.93
60355;BME280;46198;51.464;-0.066;2022-08-04T09:10:53;101398.09;;;22.68;49.45
60355;BME280;46198;51.464;-0.066;2022-08-04T09:13:32;101386.53;;;23.00;48.43
60355;BME280;46198;51.464;-0.066;2022-08-04T09:16:11;101385.94;;;22.69;48.29
60355;BME280;46198;51.464;-0.066;2022-08-04T09:18:53;101388.44;;;22.66;49.80
60355;BME280;46198;51.464;-0.066;2022-08-04T09:21:36;101385.16;;;22.64;48.63
60355;BME280;46198;51.464;-0.066;2022-08-04T09:24:19;101396.75;;;22.61;50.36
60355;BME280;46198;51.464;-0.066;2022-08-04T09:27:15;101395.44;;;22.97;48.87
60355;BME280;46198;51.464;-0.066;2022-08-04T09:29:55;101398.38;;;22.72;47.99
60355;BME280;46198;51.464;-0.066;2022-08-04T09:32:40;101404.50;;;23.03;48.00
60355;BME280;46198;51.464;-0.066;2022-08-04T09:35:16;101398.06;;;23.13;47.45
60355;BME280;46198;51.464;-0.066;2022-08-04T09:38:01;101392.38;;;22.99;47.61
60355;BME280;46198;51.464;-0.066;2022-08-04T09:40:39;101392.31;;;22.65;48.07
60355;BME280;46198;51.464;-0.066;2022-08-04T09:43:29;101389.53;;;22.70;49.01
60355;BME280;46198;51.464;-0.066;2022-08-04T09:46:24;101390.34;;;22.70;48.46
60355;BME280;46198;51.464;-0.066;2022-08-04T09:48:58;101392.66;;;22.92;48.48
60355;BME280;46198;51.464;-0.066;2022-08-04T09:51:45;101400.06;;;22.63;48.16
60355;BME280;46198;51.464;-0.066;2022-08-04T09:54:31;101398.22;;;23.27;48.05
60355;BME280;46198;51.464;-0.066;2022-08-04T09:57:08;101401.03;;;22.82;47.62
60355;BME280;46198;51.464;-0.066;2022-08-04T09:59:42;101398.78;;;22.89;48.18
60355;BME280;46198;51.464;-0.066;2022-08-04T10:02:14;101398.19;;;22.92;49.09
60355;BME280;46198;51.464;-0.066;2022-08-04T10:04:48;101403.34;;;23.09;47.10
60355;BME280;46198;51.464;-0.066;2022-08-04T10:07:43;101401.97;;;22.72;48.07
60355;BME280;46198;51.464;-0.066;2022-08-04T10:10:37;101407.03;;;22.99;47.72
60355;BME280;46198;51.464;-0.066;2022-08-04T10:13:22;101398.66;;;22.70;47.84
60355;BME280;46198;51.464;-0.066;2022-08-04T10:16:06;101403.00;;;22.82;48.08
60355;BME280;46198;51.464;-0.066;2022-08-04T10:18:44;101401.19;;;22.67;46.89
60355;BME280;46198;51.464;-0.066;2022-08-04T10:21:25;101395.84;;;23.10;46.67
60355;BME280;46198;51.464;-0.066;2022-08-04T10:24:13;101405.97;;;22.90;47.06
60355;BME280;46198;51.464;-0.066;2022-08-04T10:26:47;101405.19;;;22.85;47.89
60355;BME280;46198;51.464;-0.066;2022-08-04T10:29:26;101405.59;;;23.07;46.80
60355;BME280;46198;51.464;-0.066;2022-08-04T10:31:59;101405.44;;;23.22;47.84
60355;BME280;46198;51.464;-0.066;2022-08-04T10:34:41;101407.41;;;23.51;45.70
60355;BME280;46198;51.464;-0.066;2022-08-04T10:37:18;101406.84;;;23.78;45.48
60355;BME280;46198;51.464;-0.066;2022-08-04T10:40:12;101404.25;;;23.87;44.32
60355;BME280;46198;51.464;-0.066;2022-08-04T10:42:59;101405.59;;;23.89;45.60
60355;BME280;46198;51.464;-0.066;2022-08-04T10:45:35;101411.59;;;24.21;43.96
60355;BME280;46198;51.464;-0.066;2022-08-04T10:48:14;101411.94;;;23.66;43.92
60355;BME280;46198;51.464;-0.066;2022-08-04T10:51:03;101419.94;;;23.73;46.07
60355;BME280;46198;51.464;-0.066;2022-08-04T10:53:37;101417.59;;;23.56;44.68
60355;BME280;46198;51.464;-0.066;2022-08-04T10:56:11;101401.00;;;23.80;43.14
60355;BME280;46198;51.464;-0.066;2022-08-04T10:58:45;101410.72;;;23.77;44.33
60355;BME280;46198;51.464;-0.066;2022-08-04T11:01:23;101414.25;;;24.07;43.76
60355;BME280;46198;51.464;-0.066;2022-08-04T11:04:20;101406.97;;;24.35;43.62
60355;BME280;46198;51.464;-0.066;2022-08-04T11:07:19;101411.31;;;24.41;44.00
60355;BME280;46198;51.464;-0.066;2022-08-04T11:09:50;101413.81;;;24.62;41.86
60355;BME280;46198;51.464;-0.066;2022-08-04T11:12:24;101415.91;;;24.51;42.99
60355;BME280;46198;51.464;-0.066;2022-08-04T11:14:56;101413.13;;;24.89;43.66
60355;BME280;46198;51.464;-0.066;2022-08-04T11:17:30;101417.56;;;24.90;43.06
60355;BME280;46198;51.464;-0.066;2022-08-04T11:20:10;101420.44;;;24.47;42.40
60355;BME280;46198;51.464;-0.066;2022-08-04T11:23:03;101427.91;;;24.03;42.32
60355;BME280;46198;51.464;-0.066;2022-08-04T11:25:43;101425.50;;;23.73;42.98
60355;BME280;46198;51.464;-0.066;2022-08-04T11:28:31;101418.00;;;23.73;43.51
60355;BME280;46198;51.464;-0.066;2022-08-04T11:31:03;101435.09;;;23.80;43.32
60355;BME280;46198;51.464;-0.066;2022-08-04T11:33:36;101432.66;;;24.65;41.65
60355;BME280;46198;51.464;-0.066;2022-08-04T11:36:14;101425.28;;;24.93;42.35
60355;BME280;46198;51.464;-0.066;2022-08-04T11:38:55;101421.84;;;24.63;40.41
60355;BME280;46198;51.464;-0.066;2022-08-04T11:41:38;101435.34;;;24.08;41.36
60355;BME280;46198;51.464;-0.066;2022-08-04T11:44:11;101424.19;;;24.13;42.13
60355;BME280;46198;51.464;-0.066;2022-08-04T11:46:47;101444.31;;;24.00;42.08
60355;BME280;46198;51.464;-0.066;2022-08-04T11:49:25;101431.03;;;24.40;42.15
60355;BME280;46198;51.464;-0.066;2022-08-04T11:51:54;101430.59;;;25.08;41.79
60355;BME280;46198;51.464;-0.066;2022-08-04T11:54:23;101434.53;;;25.54;39.84
60355;BME280;46198;51.464;-0.066;2022-08-04T11:56:53;101424.38;;;25.77;38.73
60355;BME280;46198;51.464;-0.066;2022-08-04T11:59:23;101420.47;;;26.05;38.05
60355;BME280;46198;51.464;-0.066;2022-08-04T12:02:06;101426.53;;;25.52;38.53
60355;BME280;46198;51.464;-0.066;2022-08-04T12:04:49;101433.56;;;25.31;39.07
60355;BME280;46198;51.464;-0.066;2022-08-04T12:07:37;101412.75;;;25.89;39.37
60355;BME280;46198;51.464;-0.066;2022-08-04T12:10:19;101421.81;;;26.08;39.48
60355;BME280;46198;51.464;-0.066;2022-08-04T12:13:18;101425.25;;;25.45;38.68
60355;BME280;46198;51.464;-0.066;2022-08-04T12:15:54;101412.44;;;25.76;38.10
60355;BME280;46198;51.464;-0.066;2022-08-04T12:18:32;101412.38;;;25.35;39.21
60355;BME280;46198;51.464;-0.066;2022-08-04T12:21:05;101412.78;;;25.42;39.53
60355;BME280;46198;51.464;-0.066;2022-08-04T12:23:38;101418.81;;;25.63;37.85
60355;BME280;46198;51.464;-0.066;2022-08-04T12:26:09;101408.47;;;25.36;38.28
60355;BME280;46198;51.464;-0.066;2022-08-04T12:28:44;101411.16;;;25.41;38.46
60355;BME280;46198;51.464;-0.066;2022-08-04T12:31:36;101420.56;;;25.73;37.71
60355;BME280;46198;51.464;-0.066;2022-08-04T12:34:12;101416.66;;;25.60;36.74
60355;BME280;46198;51.464;-0.066;2022-08-04T12:36:58;101417.78;;;25.73;37.95
60355;BME280;46198;51.464;-0.066;2022-08-04T12:39:29;101424.41;;;25.91;37.29
60355;BME280;46198;51.464;-0.066;2022-08-04T12:42:02;101412.78;;;26.66;36.07
60355;BME280;46198;51.464;-0.066;2022-08-04T12:44:33;101419.31;;;27.07;36.50
60355;BME280;46198;51.464;-0.066;2022-08-04T12:47:07;101424.34;;;26.46;36.71
60355;BME280;46198;51.464;-0.066;2022-08-04T12:49:56;101422.97;;;25.93;37.62
60355;BME280;46198;51.464;-0.066;2022-08-04T12:52:31;101428.69;;;25.83;37.78
60355;BME280;46198;51.464;-0.066;2022-08-04T12:55:24;101433.00;;;25.48;37.41
60355;BME280;46198;51.464;-0.066;2022-08-04T12:57:54;101423.28;;;25.12;37.27
60355;BME280;46198;51.464;-0.066;2022-08-04T13:00:27;101429.88;;;25.35;38.30
60355;BME280;46198;51.464;-0.066;2022-08-04T13:03:05;101431.06;;;25.15;38.20
60355;BME280;46198;51.464;-0.066;2022-08-04T13:05:38;101430.22;;;25.15;37.54
60355;BME280;46198;51.464;-0.066;2022-08-04T13:08:08;101428.19;;;25.20;38.19
60355;BME280;46198;51.464;-0.066;2022-08-04T13:10:39;101429.28;;;24.87;38.64
60355;BME280;46198;51.464;-0.066;2022-08-04T13:13:15;101427.47;;;24.58;40.15
60355;BME280;46198;51.464;-0.066;2022-08-04T13:15:56;101425.97;;;24.85;40.42
60355;BME280;46198;51.464;-0.066;2022-08-04T13:18:24;101428.44;;;24.86;40.87
60355;BME280;46198;51.464;-0.066;2022-08-04T13:21:13;101427.25;;;24.92;40.47
60355;BME280;46198;51.464;-0.066;2022-08-04T13:23:49;101425.22;;;24.60;40.10
60355;BME280;46198;51.464;-0.066;2022-08-04T13:26:52;101428.00;;;24.79;40.16
60355;BME280;46198;51.464;-0.066;2022-08-04T13:29:24;101423.06;;;24.76;41.13
60355;BME280;46198;51.464;-0.066;2022-08-04T13:32:18;101424.00;;;24.85;40.11
60355;BME280;46198;51.464;-0.066;2022-08-04T13:34:51;101428.53;;;24.62;40.13
60355;BME280;46198;51.464;-0.066;2022-08-04T13:37:24;101427.41;;;24.63;39.29
60355;BME280;46198;51.464;-0.066;2022-08-04T13:39:54;101419.00;;;24.68;39.19
60355;BME280;46198;51.464;-0.066;2022-08-04T13:42:25;101425.59;;;24.53;39.50
60355;BME280;46198;51.464;-0.066;2022-08-04T13:44:58;101420.88;;;24.73;39.18
60355;BME280;46198;51.464;-0.066;2022-08-04T13:47:30;101428.03;;;24.36;39.71
60355;BME280;46198;51.464;-0.066;2022-08-04T13:50:16;101422.88;;;24.86;38.58
60355;BME280;46198;51.464;-0.066;2022-08-04T13:52:46;101414.41;;;24.77;38.06
60355;BME280;46198;51.464;-0.066;2022-08-04T13:55:21;101411.13;;;24.75;38.96
60355;BME280;46198;51.464;-0.066;2022-08-04T13:57:55;101416.34;;;24.96;38.90
60355;BME280;46198;51.464;-0.066;2022-08-04T14:00:25;101405.88;;;24.74;39.30
60355;BME280;46198;51.464;-0.066;2022-08-04T14:03:01;101416.38;;;24.58;39.30
60355;BME280;46198;51.464;-0.066;2022-08-04T14:06:13;101406.41;;;24.76;39.20
60355;BME280;46198;51.464;-0.066;2022-08-04T14:08:48;101411.81;;;24.67;38.91
60355;BME280;46198;51.464;-0.066;2022-08-04T14:11:19;101406.22;;;24.86;39.43
60355;BME280;46198;51.464;-0.066;2022-08-04T14:14:15;101409.09;;;24.81;38.65
60355;BME280;46198;51.464;-0.066;2022-08-04T14:16:57;101421.44;;;24.89;38.77